createdAt,value
2022-09-05T00:01:27.462Z,7.9
2022-09-05T00:11:40.457Z,7.9
2022-09-05T00:24:28.688Z,7.9
2022-09-05T00:31:54.712Z,7.9
2022-09-05T00:36:21.617Z,7.9
2022-09-05T00:41:21.596Z,7.9
2022-09-05T00:46:21.657Z,7.9
2022-09-05T00:56:21.616Z,7.9
2022-09-05T01:06:21.615Z,7.9
2022-09-05T01:11:21.590Z,7.9
2022-09-05T01:16:21.685Z,7.9
2022-09-05T01:26:21.631Z,7.9
2022-09-05T01:31:21.707Z,7.9
2022-09-05T01:41:21.679Z,7.9
2022-09-05T01:46:21.708Z,7.9
2022-09-05T01:51:28.370Z,7.9
2022-09-05T01:56:21.615Z,7.9
2022-09-05T02:01:30.125Z,7.9
2022-09-05T02:06:21.625Z,7.9
2022-09-05T02:11:36.125Z,7.9
2022-09-05T02:16:21.674Z,7.9
2022-09-05T02:26:21.619Z,7.8
2022-09-05T02:31:21.698Z,7.9
2022-09-05T02:36:21.621Z,7.8
2022-09-05T02:45:03.025Z,7.8
2022-09-05T02:46:21.842Z,7.8
2022-09-05T02:58:04.665Z,7.8
2022-09-05T03:06:26.051Z,7.9
2022-09-05T03:11:21.702Z,7.8
2022-09-05T03:21:21.676Z,7.8
2022-09-05T03:31:22.563Z,7.8
2022-09-05T03:36:21.677Z,7.8
2022-09-05T03:46:21.713Z,7.8
2022-09-05T03:57:12.399Z,7.8
2022-09-05T04:02:22.380Z,7.8
2022-09-05T07:01:02.676Z,7.8
2022-09-05T07:12:59.874Z,7.8
2022-09-05T07:14:54.006Z,7.8
2022-09-05T07:19:54.785Z,7.8
2022-09-05T07:30:01.709Z,7.5
2022-09-05T07:39:54.093Z,7.7
2022-09-05T07:44:54.014Z,7.7
2022-09-05T07:57:02.076Z,7.9
2022-09-05T07:59:54.013Z,7.9
2022-09-05T08:10:06.298Z,7.9
2022-09-05T08:14:54.015Z,7.9
2022-09-05T08:24:54.003Z,7.9
2022-09-05T08:30:27.177Z,7.9
2022-09-05T08:34:54.020Z,7.9
2022-09-05T08:46:42.505Z,7.9
2022-09-05T08:49:54.036Z,7.9
2022-09-05T08:55:02.875Z,7.4
2022-09-05T09:00:14.398Z,7.2
2022-09-05T09:09:54.026Z,7.1
2022-09-05T09:14:54.026Z,7.2
2022-09-05T09:19:54.034Z,7.3
2022-09-05T09:25:12.022Z,7.6
2022-09-05T09:34:55.583Z,7.9
2022-09-05T09:39:54.069Z,8.1
2022-09-05T09:49:54.023Z,8.1
2022-09-05T09:54:54.056Z,8.1
2022-09-05T10:10:39.665Z,8.2
2022-09-05T10:10:49.406Z,8.1
2022-09-05T10:20:10.893Z,8.2
2022-09-05T10:24:54.051Z,8.2
2022-09-05T10:35:12.866Z,8.2
2022-09-05T10:39:54.216Z,8.2
2022-09-05T10:49:54.057Z,8.2
2022-09-05T11:02:21.333Z,8.2
2022-09-05T11:04:54.111Z,8.3
2022-09-05T11:14:54.044Z,8.4
2022-09-05T11:19:54.063Z,8.3
2022-09-05T11:29:54.057Z,9.3
2022-09-05T11:40:32.538Z,11.4
2022-09-05T11:49:54.075Z,11.5
2022-09-05T12:00:30.924Z,11.7
2022-09-05T12:05:49.202Z,10.6
2022-09-05T12:09:54.087Z,10.3
2022-09-05T12:19:54.065Z,9.8
2022-09-05T12:29:59.539Z,9.8
2022-09-05T12:40:57.889Z,9.6
2022-09-05T12:44:54.832Z,9.6
2022-09-05T12:54:56.874Z,9.5
2022-09-05T13:03:08.223Z,9.4
2022-09-05T13:12:35.751Z,9.4
2022-09-05T13:24:54.123Z,9.3
2022-09-05T13:30:29.771Z,9.2
2022-09-05T13:39:54.260Z,9.2
2022-09-05T13:49:54.075Z,9.2
2022-09-05T13:54:54.078Z,9.2
2022-09-05T14:05:14.639Z,9.1
2022-09-05T14:15:10.833Z,9.2
2022-09-05T14:19:54.084Z,9.2
2022-09-05T14:24:58.528Z,9.2
2022-09-05T14:37:40.948Z,12
2022-09-05T14:39:54.478Z,10.5
2022-09-05T14:49:54.085Z,10
2022-09-05T15:03:00.234Z,9.9
2022-09-05T15:12:16.829Z,9.8
2022-09-05T15:14:54.100Z,9.7
2022-09-05T15:24:54.101Z,9.6
2022-09-05T15:34:54.096Z,9.7
2022-09-05T15:45:09.280Z,9.5
2022-09-05T15:54:54.153Z,9.4
2022-09-05T15:59:54.100Z,9.4
2022-09-05T16:10:45.523Z,9.4
2022-09-05T16:23:25.660Z,9.4
2022-09-05T16:29:54.097Z,9.3
2022-09-05T16:34:54.101Z,9.3
2022-09-05T16:44:54.097Z,9.3
2022-09-05T16:49:57.301Z,9.3
2022-09-05T16:59:54.098Z,9.3
2022-09-05T17:05:03.640Z,9.3
2022-09-05T17:14:54.103Z,9.3
2022-09-05T17:20:06.187Z,9.3
2022-09-05T17:39:54.166Z,9.2
2022-09-05T17:44:54.116Z,9.2
2022-09-05T17:54:54.107Z,9.1
2022-09-05T17:59:54.120Z,9.1
2022-09-05T18:09:54.118Z,9.1
2022-09-05T18:14:54.119Z,9.1
2022-09-05T18:24:54.124Z,9.1
2022-09-05T18:34:54.115Z,9.1
2022-09-05T18:39:54.189Z,9.1
2022-09-05T18:50:25.752Z,9.2
2022-09-05T18:59:54.119Z,9.2
2022-09-05T19:04:54.128Z,9.1
2022-09-05T19:14:54.116Z,9.1
2022-09-05T19:20:11.304Z,9.1
2022-09-05T19:37:09.792Z,9.1
2022-09-05T19:43:42.807Z,9.1
2022-09-05T19:47:44.710Z,9
2022-09-05T19:54:54.129Z,9
2022-09-05T19:59:54.157Z,9
2022-09-05T20:09:54.158Z,9
2022-09-05T20:19:54.138Z,9
2022-09-05T20:24:54.138Z,9
2022-09-05T20:29:55.580Z,9
2022-09-05T20:43:20.651Z,9
2022-09-05T20:54:15.842Z,9
2022-09-05T20:54:54.209Z,9
2022-09-05T20:59:54.154Z,9
2022-09-05T21:09:54.158Z,9.1
2022-09-05T21:19:54.439Z,9
2022-09-05T21:29:59.254Z,9.1
2022-09-05T21:34:54.155Z,9
2022-09-05T21:40:00.363Z,9.1
2022-09-05T21:49:54.162Z,9.1
2022-09-05T21:59:54.737Z,9.2
2022-09-05T22:04:54.169Z,9.1
2022-09-05T22:14:54.170Z,9.2
2022-09-05T22:24:54.154Z,9.2
2022-09-05T22:29:54.176Z,9.2
2022-09-05T22:39:54.190Z,9.1
2022-09-05T22:44:54.171Z,9.1
2022-09-05T22:54:54.163Z,9.1
2022-09-05T22:59:54.175Z,9.2
2022-09-05T23:04:54.180Z,9.2
2022-09-05T23:14:54.281Z,9.1
2022-09-05T23:24:54.199Z,9.1
2022-09-05T23:29:54.181Z,9.1
2022-09-05T23:39:54.252Z,9.2
2022-09-05T23:44:54.209Z,9.2
2022-09-05T23:54:54.180Z,9.3
2022-09-05T23:59:54.190Z,9.2
